Time;durP1;ratioP1;P1;durP2;ratioP2;P2;SDS_P1;SDS_P2;PMS_P1;PMS_P2;Temp;Humidity;BMP_temperature;BMP_pressure;BME280_temperature;BME280_humidity;BME280_pressure;Samples;Min_cycle;Max_cycle;Signal;HPM_P1;HPM_P2
2021/03/19 00:01:40;;;;;;;3.83;1.40;;;20.40;48.20;;;;;;5078958;28;20039;-49
2021/03/19 00:04:08;;;;;;;2.95;1.05;;;20.40;48.10;;;;;;5076867;28;20024;-42
2021/03/19 00:06:34;;;;;;;2.42;1.20;;;20.40;48.20;;;;;;5082823;28;20020;-50
2021/03/19 00:09:06;;;;;;;5.35;1.95;;;20.40;48.70;;;;;;5079520;28;20131;-46
2021/03/19 00:11:32;;;;;;;2.05;1.20;;;20.40;48.00;;;;;;5080628;28;20031;-45
2021/03/19 00:13:59;;;;;;;2.95;1.23;;;20.40;48.00;;;;;;5080528;28;20028;-49
2021/03/19 00:16:25;;;;;;;3.92;1.15;;;20.40;48.00;;;;;;5079065;28;20032;-52
2021/03/19 00:18:50;;;;;;;2.00;1.25;;;20.40;48.00;;;;;;5081146;28;20024;-47
2021/03/19 00:21:16;;;;;;;1.42;0.90;;;20.40;47.90;;;;;;5083694;28;21032;-47
2021/03/19 00:23:42;;;;;;;3.15;1.00;;;20.40;47.90;;;;;;5078151;28;20024;-47
2021/03/19 00:26:08;;;;;;;3.40;1.30;;;20.40;48.00;;;;;;5079588;28;20036;-46
2021/03/19 00:28:33;;;;;;;2.92;1.30;;;20.40;47.90;;;;;;5078678;28;20496;-45
2021/03/19 00:30:59;;;;;;;1.50;0.93;;;20.40;47.90;;;;;;5081646;28;20063;-45
2021/03/19 00:33:25;;;;;;;1.98;1.00;;;20.40;47.90;;;;;;5082585;28;20414;-51
2021/03/19 00:35:51;;;;;;;2.25;1.27;;;20.40;47.80;;;;;;5083013;28;20078;-50
2021/03/19 00:38:17;;;;;;;2.67;1.30;;;20.50;47.80;;;;;;5078400;28;20025;-48
2021/03/19 00:40:44;;;;;;;2.53;1.00;;;20.50;47.80;;;;;;5082402;28;20472;-46
2021/03/19 00:43:11;;;;;;;1.85;1.30;;;20.40;47.70;;;;;;5081232;28;20106;-49
2021/03/19 00:45:37;;;;;;;2.03;1.20;;;20.40;47.80;;;;;;5077268;28;20349;-49
2021/03/19 00:48:04;;;;;;;3.08;1.20;;;20.50;47.70;;;;;;5081856;28;20465;-45
2021/03/19 00:50:35;;;;;;;1.60;1.08;;;20.50;47.70;;;;;;5079217;28;20366;-49
2021/03/19 00:53:01;;;;;;;1.27;0.90;;;20.50;47.70;;;;;;5079466;28;20423;-47
2021/03/19 00:55:27;;;;;;;2.10;0.95;;;20.50;47.60;;;;;;5080459;28;20031;-51
2021/03/19 00:57:53;;;;;;;2.60;0.93;;;20.50;47.60;;;;;;5082451;28;20024;-46
2021/03/19 01:00:20;;;;;;;1.33;1.00;;;20.50;47.50;;;;;;5081534;28;20032;-42
2021/03/19 01:02:46;;;;;;;1.73;1.10;;;20.50;47.60;;;;;;5081695;28;20044;-44
2021/03/19 01:05:26;;;;;;;2.13;1.00;;;20.50;47.60;;;;;;5079680;28;20078;-47
2021/03/19 01:07:52;;;;;;;1.63;0.73;;;20.50;48.20;;;;;;5082950;28;20024;-46
2021/03/19 01:10:23;;;;;;;1.63;0.90;;;20.50;47.50;;;;;;5078039;28;20028;-46
2021/03/19 01:12:49;;;;;;;1.00;0.80;;;20.50;47.40;;;;;;5078361;28;20407;-45
2021/03/19 01:15:15;;;;;;;1.10;0.90;;;20.50;47.40;;;;;;5081447;28;20112;-46
2021/03/19 01:17:40;;;;;;;1.60;0.80;;;20.50;47.40;;;;;;5075501;28;20028;-49
2021/03/19 01:20:10;;;;;;;2.67;1.38;;;20.50;47.40;;;;;;5080710;28;20526;-46
2021/03/19 01:22:36;;;;;;;2.25;1.30;;;20.50;47.40;;;;;;5081413;28;20459;-46
2021/03/19 01:25:04;;;;;;;1.80;1.40;;;20.50;47.40;;;;;;5081378;28;20037;-46
2021/03/19 01:27:30;;;;;;;2.88;0.80;;;20.50;47.30;;;;;;5079572;28;20062;-46
2021/03/19 01:29:55;;;;;;;1.88;1.17;;;20.50;47.30;;;;;;5087177;28;20107;-48
2021/03/19 01:32:21;;;;;;;1.58;0.90;;;20.50;47.30;;;;;;5086441;28;20545;-45
2021/03/19 01:34:46;;;;;;;1.75;1.00;;;20.50;47.30;;;;;;5083593;28;20029;-45
2021/03/19 01:37:12;;;;;;;4.03;1.35;;;20.50;47.30;;;;;;5083876;28;20040;-45
2021/03/19 01:39:38;;;;;;;1.35;0.85;;;20.50;47.20;;;;;;5080696;28;20032;-47
2021/03/19 01:42:04;;;;;;;2.55;1.15;;;20.50;47.20;;;;;;5085153;28;20055;-45
2021/03/19 01:44:42;;;;;;;1.92;0.98;;;20.50;47.20;;;;;;5081906;28;20048;-48
2021/03/19 01:47:45;;;;;;;2.25;1.08;;;20.50;47.20;;;;;;5081732;28;20052;-46
2021/03/19 01:50:48;;;;;;;2.00;1.17;;;20.50;47.20;;;;;;5085016;28;20473;-46
2021/03/19 01:53:51;;;;;;;2.28;1.30;;;20.50;47.10;;;;;;5083883;28;20424;-42
2021/03/19 01:56:54;;;;;;;1.30;0.90;;;20.50;47.20;;;;;;5082485;28;20036;-47
2021/03/19 01:59:57;;;;;;;1.40;1.08;;;20.50;47.10;;;;;;5085207;28;20097;-47
2021/03/19 02:03:00;;;;;;;1.58;1.00;;;20.50;47.00;;;;;;5077765;28;20069;-45
2021/03/19 02:06:03;;;;;;;2.50;1.33;;;20.50;47.00;;;;;;5073684;28;20033;-48
2021/03/19 02:09:06;;;;;;;2.35;0.90;;;20.50;47.00;;;;;;5081679;28;20028;-51
2021/03/19 02:12:09;;;;;;;2.33;1.05;;;20.50;47.00;;;;;;5087999;28;20020;-45
2021/03/19 02:15:12;;;;;;;1.83;1.13;;;20.50;46.90;;;;;;5091748;28;20039;-47
2021/03/19 02:18:15;;;;;;;1.77;0.90;;;20.50;46.90;;;;;;5075090;28;20382;-50
2021/03/19 02:21:19;;;;;;;1.65;1.02;;;20.50;46.90;;;;;;5090346;28;20476;-52
2021/03/19 02:24:22;;;;;;;1.55;1.00;;;20.50;46.80;;;;;;5084259;28;20183;-44
2021/03/19 02:27:24;;;;;;;1.80;0.80;;;20.50;46.80;;;;;;5092903;28;20110;-46
2021/03/19 02:30:27;;;;;;;2.03;1.08;;;20.50;46.80;;;;;;5089777;28;20054;-50
2021/03/19 02:32:53;;;;;;;1.90;1.00;;;20.50;46.70;;;;;;5077738;28;20024;-46
2021/03/19 02:35:23;;;;;;;2.78;1.08;;;20.50;46.60;;;;;;5074599;28;20047;-45
2021/03/19 02:37:48;;;;;;;1.40;0.75;;;20.50;46.70;;;;;;5088310;28;20071;-51
2021/03/19 02:40:21;;;;;;;1.60;0.90;;;20.50;46.70;;;;;;5073940;28;20465;-45
2021/03/19 02:42:48;;;;;;;2.75;1.13;;;20.50;46.70;;;;;;5081388;28;20030;-46
2021/03/19 02:45:20;;;;;;;1.60;1.00;;;20.50;46.70;;;;;;5090410;28;20036;-47
2021/03/19 02:47:46;;;;;;;1.42;0.90;;;20.50;46.60;;;;;;5088364;28;20039;-45
2021/03/19 02:50:13;;;;;;;1.67;0.90;;;20.50;46.60;;;;;;5084515;28;20115;-46
2021/03/19 02:52:41;;;;;;;2.35;1.30;;;20.50;46.60;;;;;;5087679;28;20103;-47
2021/03/19 02:55:10;;;;;;;1.75;0.93;;;20.50;46.60;;;;;;5073338;28;20032;-47
2021/03/19 02:57:36;;;;;;;2.60;0.90;;;20.50;46.50;;;;;;5075119;28;20499;-50
2021/03/19 03:00:02;;;;;;;1.17;0.80;;;20.50;46.50;;;;;;5084106;28;20111;-46
2021/03/19 03:02:28;;;;;;;1.67;1.15;;;20.50;46.60;;;;;;5092018;28;20051;-52
2021/03/19 03:04:53;;;;;;;1.17;0.85;;;20.50;46.50;;;;;;5083700;28;20036;-45
2021/03/19 03:07:25;;;;;;;3.65;1.20;;;20.50;46.50;;;;;;5090311;28;20032;-46
2021/03/19 03:09:51;;;;;;;1.27;0.88;;;20.50;46.40;;;;;;5072869;28;20024;-46
2021/03/19 03:12:17;;;;;;;2.13;1.00;;;20.50;46.40;;;;;;5091416;28;20492;-48
2021/03/19 03:14:43;;;;;;;2.45;1.20;;;20.50;46.40;;;;;;5078976;28;20036;-50
2021/03/19 03:17:09;;;;;;;1.38;0.95;;;20.50;46.40;;;;;;5073054;28;20453;-45
2021/03/19 03:19:35;;;;;;;1.30;0.90;;;20.50;46.40;;;;;;5090873;28;20032;-47
2021/03/19 03:22:01;;;;;;;1.48;1.00;;;20.50;46.30;;;;;;5092707;28;20506;-45
2021/03/19 03:24:28;;;;;;;1.10;0.88;;;20.50;46.30;;;;;;5076649;28;20032;-51
2021/03/19 03:26:53;;;;;;;1.55;1.05;;;20.50;46.30;;;;;;5074757;28;20051;-52
2021/03/19 03:29:21;;;;;;;1.77;1.05;;;20.50;46.20;;;;;;5088798;28;20025;-49
2021/03/19 03:31:47;;;;;;;2.35;0.93;;;20.50;46.30;;;;;;5072825;28;20032;-49
2021/03/19 03:34:12;;;;;;;4.22;0.70;;;20.50;46.20;;;;;;5092161;28;20022;-46
2021/03/19 03:36:40;;;;;;;2.88;1.05;;;20.50;46.20;;;;;;5091442;28;20047;-48
2021/03/19 03:39:10;;;;;;;1.92;1.10;;;20.50;46.20;;;;;;5090824;28;20032;-48
2021/03/19 03:41:36;;;;;;;1.85;0.80;;;20.50;46.10;;;;;;5070856;28;20077;-46
2021/03/19 03:44:02;;;;;;;1.48;0.80;;;20.50;46.10;;;;;;5072372;28;20454;-48
2021/03/19 03:46:28;;;;;;;1.95;1.05;;;20.50;46.10;;;;;;5081148;28;20029;-53
2021/03/19 03:48:56;;;;;;;1.55;0.90;;;20.50;46.10;;;;;;5077990;28;20028;-46
2021/03/19 03:51:24;;;;;;;1.48;0.90;;;20.50;46.10;;;;;;5079387;28;20032;-45
2021/03/19 03:53:49;;;;;;;1.05;0.77;;;20.50;46.00;;;;;;5082781;28;20054;-48
2021/03/19 03:56:16;;;;;;;1.67;0.90;;;20.60;46.10;;;;;;5072567;28;20443;-46
2021/03/19 03:58:43;;;;;;;1.80;1.20;;;20.50;46.00;;;;;;5084562;28;20107;-47
2021/03/19 04:01:09;;;;;;;1.00;0.80;;;20.50;46.00;;;;;;5082971;28;20024;-45
2021/03/19 04:03:35;;;;;;;2.42;1.08;;;20.50;46.00;;;;;;5090676;28;20416;-49
2021/03/19 04:06:02;;;;;;;1.95;1.00;;;20.50;46.00;;;;;;5092355;28;20024;-46
2021/03/19 04:08:29;;;;;;;2.30;1.73;;;20.50;45.90;;;;;;5082554;28;20033;-52
2021/03/19 04:10:57;;;;;;;1.73;1.10;;;20.60;46.00;;;;;;5091477;28;20028;-47
2021/03/19 04:13:25;;;;;;;1.30;0.90;;;20.50;45.90;;;;;;5091283;28;20058;-47
2021/03/19 04:15:51;;;;;;;1.13;0.90;;;20.60;46.00;;;;;;5082482;28;20046;-46
2021/03/19 04:18:19;;;;;;;1.33;0.98;;;20.50;45.90;;;;;;5086070;28;20054;-48
2021/03/19 04:20:46;;;;;;;2.67;0.82;;;20.50;45.90;;;;;;5071532;28;20067;-47
2021/03/19 04:23:12;;;;;;;1.98;1.05;;;20.60;45.80;;;;;;5080872;28;20620;-45
2021/03/19 04:25:38;;;;;;;1.83;0.90;;;20.50;45.80;;;;;;5071185;28;20115;-51
2021/03/19 04:28:08;;;;;;;1.38;0.95;;;20.50;45.80;;;;;;5080848;28;20119;-47
2021/03/19 04:30:39;;;;;;;2.72;1.00;;;20.60;45.80;;;;;;5080479;28;20046;-49
2021/03/19 04:33:10;;;;;;;2.15;1.02;;;20.60;45.90;;;;;;5082298;28;20028;-46
2021/03/19 04:35:36;;;;;;;3.43;0.93;;;20.60;45.80;;;;;;5083484;28;20044;-45
2021/03/19 04:38:15;;;;;;;2.92;1.00;;;20.60;45.80;;;;;;5079456;28;20032;-47
2021/03/19 04:40:43;;;;;;;2.05;1.08;;;20.60;45.80;;;;;;5077372;28;20059;-49
2021/03/19 04:43:09;;;;;;;1.83;1.00;;;20.60;45.80;;;;;;5077390;28;20032;-50
2021/03/19 04:45:40;;;;;;;3.47;1.42;;;20.60;45.70;;;;;;5081000;28;20041;-46
2021/03/19 04:48:07;;;;;;;3.63;1.02;;;20.60;45.70;;;;;;5082746;28;20020;-46
2021/03/19 04:50:33;;;;;;;1.95;1.10;;;20.60;45.60;;;;;;5082343;28;20025;-50
2021/03/19 04:52:59;;;;;;;2.63;1.30;;;20.60;45.60;;;;;;5081191;28;20460;-48
2021/03/19 04:55:24;;;;;;;2.03;1.25;;;20.60;45.60;;;;;;5080547;28;20040;-48
2021/03/19 04:57:51;;;;;;;3.50;1.65;;;20.60;45.60;;;;;;5082016;28;20043;-46
2021/03/19 05:00:20;;;;;;;1.67;1.02;;;20.60;45.60;;;;;;5080695;28;20055;-48
2021/03/19 05:02:48;;;;;;;2.42;1.20;;;20.60;45.50;;;;;;5082604;28;20048;-51
2021/03/19 05:05:18;;;;;;;3.47;0.85;;;20.70;45.60;;;;;;5085346;28;20043;-47
2021/03/19 05:07:44;;;;;;;1.30;0.90;;;20.70;45.60;;;;;;5086275;28;20359;-44
2021/03/19 05:10:11;;;;;;;1.70;0.98;;;20.60;45.40;;;;;;5085435;28;20028;-45
2021/03/19 05:12:36;;;;;;;2.03;1.15;;;20.70;45.50;;;;;;5084293;28;20532;-49
2021/03/19 05:15:04;;;;;;;1.20;0.90;;;20.70;45.50;;;;;;5085063;28;20114;-49
2021/03/19 05:17:30;;;;;;;2.72;1.23;;;20.70;45.50;;;;;;5086144;28;20066;-50
2021/03/19 05:19:57;;;;;;;1.48;1.17;;;20.70;45.40;;;;;;5086022;28;20028;-46
2021/03/19 05:22:23;;;;;;;1.63;0.80;;;20.70;45.40;;;;;;5084839;28;20029;-49
2021/03/19 05:24:49;;;;;;;3.25;0.82;;;20.60;45.40;;;;;;5084799;28;20032;-44
2021/03/19 05:27:15;;;;;;;3.65;0.85;;;20.60;45.30;;;;;;5085742;28;20058;-46
2021/03/19 05:29:41;;;;;;;2.03;1.10;;;20.70;45.30;;;;;;5082004;28;20392;-50
2021/03/19 05:32:06;;;;;;;1.65;1.15;;;20.70;45.30;;;;;;5083939;28;20025;-44
2021/03/19 05:34:32;;;;;;;2.63;1.50;;;20.70;45.30;;;;;;5082668;28;20038;-55
2021/03/19 05:36:58;;;;;;;2.03;0.98;;;20.70;45.30;;;;;;5085806;28;20386;-45
2021/03/19 05:39:24;;;;;;;4.78;1.30;;;20.70;45.30;;;;;;5083941;28;20039;-52
2021/03/19 05:41:50;;;;;;;2.58;1.35;;;20.70;45.20;;;;;;5084071;28;20025;-49
2021/03/19 05:44:24;;;;;;;3.65;1.40;;;20.70;45.20;;;;;;5082802;28;20374;-46
2021/03/19 05:47:04;;;;;;;1.92;1.02;;;20.70;45.20;;;;;;5084724;28;20039;-50
2021/03/19 05:49:33;;;;;;;1.25;0.93;;;20.70;45.20;;;;;;5083395;28;20068;-52
2021/03/19 05:52:01;;;;;;;1.77;1.30;;;20.70;45.10;;;;;;5083860;28;20020;-50
2021/03/19 05:54:30;;;;;;;2.05;1.00;;;20.70;45.10;;;;;;5085772;28;20028;-48
2021/03/19 05:57:15;;;;;;;2.42;1.15;;;20.70;45.10;;;;;;5082593;28;20035;-47
2021/03/19 05:59:49;;;;;;;2.97;1.40;;;20.70;45.10;;;;;;5080765;28;20036;-45
2021/03/19 06:02:29;;;;;;;1.80;1.13;;;20.70;45.10;;;;;;5078973;28;20068;-48
2021/03/19 06:05:13;;;;;;;4.07;1.20;;;20.70;45.10;;;;;;5084927;28;20094;-45
2021/03/19 06:08:03;;;;;;;4.10;1.40;;;20.70;45.00;;;;;;5080909;28;20032;-47
2021/03/19 06:10:37;;;;;;;2.45;0.98;;;20.70;45.10;;;;;;5082064;28;20029;-51
2021/03/19 06:13:20;;;;;;;3.45;1.00;;;20.70;45.10;;;;;;5080451;28;20060;-46
2021/03/19 06:15:50;;;;;;;6.57;1.08;;;20.70;45.00;;;;;;5082105;28;20082;-44
2021/03/19 06:18:34;;;;;;;3.45;1.25;;;20.70;45.00;;;;;;5084891;28;20483;-45
2021/03/19 06:21:11;;;;;;;2.10;1.38;;;20.70;45.00;;;;;;5080968;28;20039;-45
2021/03/19 06:23:40;;;;;;;2.60;0.93;;;20.70;45.00;;;;;;5082911;28;20020;-45
2021/03/19 06:26:28;;;;;;;4.53;2.05;;;20.70;45.00;;;;;;5080686;28;20040;-46
2021/03/19 06:29:33;;;;;;;1.55;1.13;;;20.70;44.90;;;;;;5083046;28;20032;-46
2021/03/19 06:32:07;;;;;;;1.60;1.17;;;20.70;45.00;;;;;;5072620;28;20043;-52
2021/03/19 06:34:33;;;;;;;2.95;1.17;;;20.70;44.90;;;;;;5081418;28;20036;-51
2021/03/19 06:36:59;;;;;;;1.92;1.08;;;20.70;44.90;;;;;;5080515;28;20381;-53
2021/03/19 06:39:30;;;;;;;2.70;1.00;;;20.70;44.90;;;;;;5080602;28;20058;-45
2021/03/19 06:42:18;;;;;;;2.63;1.08;;;20.70;44.90;;;;;;5082136;28;20094;-46
2021/03/19 06:45:06;;;;;;;3.35;1.15;;;20.70;44.90;;;;;;5075180;28;20033;-49
2021/03/19 06:47:36;;;;;;;2.58;1.25;;;20.80;45.00;;;;;;5086044;28;20035;-51
2021/03/19 06:50:03;;;;;;;3.33;1.10;;;20.80;45.00;;;;;;5092075;28;20032;-48
2021/03/19 06:52:29;;;;;;;3.20;1.50;;;20.70;45.00;;;;;;5088016;28;20025;-51
2021/03/19 06:54:59;;;;;;;2.92;1.02;;;20.70;45.10;;;;;;5087324;28;20032;-49
2021/03/19 06:57:27;;;;;;;7.25;1.45;;;20.80;45.60;;;;;;5091592;28;20493;-49
2021/03/19 06:59:54;;;;;;;3.30;1.25;;;20.80;45.40;;;;;;5091235;28;20032;-46
2021/03/19 07:02:20;;;;;;;1.73;0.80;;;20.80;45.80;;;;;;5053477;28;654586;-46
2021/03/19 07:04:55;;;;;;;8.75;1.75;;;20.80;46.00;;;;;;5077904;28;20068;-46
2021/03/19 07:07:49;;;;;;;10.13;2.78;;;20.90;46.20;;;;;;5091318;28;20031;-45
2021/03/19 07:10:34;;;;;;;10.52;1.42;;;20.80;46.20;;;;;;5091659;28;20469;-45
2021/03/19 07:13:15;;;;;;;6.40;1.65;;;20.80;46.30;;;;;;5088224;28;20099;-50
2021/03/19 07:16:10;;;;;;;7.75;2.00;;;20.80;46.40;;;;;;5081644;28;20115;-48
2021/03/19 07:19:11;;;;;;;13.27;1.80;;;20.80;46.10;;;;;;5073920;28;20036;-49
2021/03/19 07:22:11;;;;;;;6.88;1.73;;;20.70;45.80;;;;;;5071873;28;20123;-48
2021/03/19 07:25:04;;;;;;;4.90;1.70;;;20.70;45.60;;;;;;5072120;28;20044;-45
2021/03/19 07:27:50;;;;;;;3.92;2.10;;;20.70;45.70;;;;;;5054919;28;20044;-52
2021/03/19 07:30:28;;;;;;;5.75;2.33;;;20.60;45.60;;;;;;5091778;28;20081;-47
2021/03/19 07:33:31;;;;;;;7.45;1.75;;;20.60;45.70;;;;;;5084621;28;20789;-51
2021/03/19 07:36:30;;;;;;;5.55;1.85;;;20.70;46.10;;;;;;5071955;28;20485;-47
2021/03/19 07:39:10;;;;;;;5.18;1.92;;;20.70;46.20;;;;;;5079345;28;20038;-47
2021/03/19 07:41:41;;;;;;;12.00;1.85;;;20.70;46.40;;;;;;5078009;28;20025;-46
2021/03/19 07:44:28;;;;;;;5.03;1.58;;;20.80;46.60;;;;;;5080509;28;20085;-47
2021/03/19 07:46:59;;;;;;;6.63;1.92;;;20.70;46.60;;;;;;5087649;28;20118;-48
2021/03/19 07:49:44;;;;;;;6.32;1.65;;;20.80;46.80;;;;;;5082535;28;20028;-45
2021/03/19 07:52:29;;;;;;;2.22;1.50;;;20.80;46.80;;;;;;5079860;28;20036;-46
2021/03/19 07:55:44;;;;;;;5.40;1.80;;;20.80;46.90;;;;;;5086748;28;20097;-45
2021/03/19 07:58:49;;;;;;;4.95;1.60;;;20.80;47.00;;;;;;5082289;28;20051;-48
2021/03/19 08:01:31;;;;;;;5.70;1.50;;;20.80;47.00;;;;;;5087046;28;20024;-47
2021/03/19 08:04:20;;;;;;;;;;;20.80;47.00;;;;;;5079707;28;20041;-46
2021/03/19 08:06:51;;;;;;;3.88;1.30;;;20.80;47.10;;;;;;5073390;28;19959;-46
2021/03/19 08:09:47;;;;;;;5.80;1.38;;;20.80;47.10;;;;;;5074967;28;20024;-46
2021/03/19 08:12:22;;;;;;;5.68;1.95;;;20.80;47.10;;;;;;5091205;28;20460;-45
2021/03/19 08:15:14;;;;;;;4.97;2.40;;;20.80;47.10;;;;;;5083515;28;20535;-47
2021/03/19 08:18:13;;;;;;;3.15;1.45;;;20.80;47.20;;;;;;5048860;28;20037;-51
2021/03/19 08:21:17;;;;;;;5.60;1.38;;;20.80;47.20;;;;;;5071509;28;20081;-54
2021/03/19 08:24:16;;;;;;;4.72;1.40;;;20.80;47.20;;;;;;5079938;28;20025;-51
2021/03/19 08:26:49;;;;;;;2.45;1.52;;;20.80;47.10;;;;;;5072264;28;20040;-49
2021/03/19 08:29:36;;;;;;;6.07;1.33;;;20.80;47.10;;;;;;5071756;28;20103;-52
2021/03/19 08:32:14;;;;;;;4.13;1.70;;;20.80;47.00;;;;;;5072226;28;20043;-50
2021/03/19 08:34:50;;;;;;;4.95;1.67;;;20.80;47.70;;;;;;5078903;28;20059;-51
2021/03/19 08:37:26;;;;;;;5.32;1.58;;;20.80;47.20;;;;;;5085618;28;20024;-51
2021/03/19 08:39:54;;;;;;;5.20;1.77;;;20.80;47.10;;;;;;5072484;28;20028;-51
2021/03/19 08:42:36;;;;;;;4.35;1.55;;;20.80;47.00;;;;;;5072956;28;20373;-53
2021/03/19 08:45:05;;;;;;;4.35;1.40;;;20.80;47.10;;;;;;5089468;28;20040;-50
2021/03/19 08:47:43;;;;;;;3.63;1.27;;;20.80;47.10;;;;;;5077470;28;20031;-52
2021/03/19 08:50:19;;;;;;;2.97;1.23;;;20.70;47.00;;;;;;5080145;28;20050;-51
2021/03/19 08:53:05;;;;;;;3.45;1.40;;;20.70;46.90;;;;;;5076799;28;20030;-55
2021/03/19 08:55:35;;;;;;;7.32;1.38;;;20.70;46.90;;;;;;5078740;28;20036;-52
2021/03/19 08:58:26;;;;;;;4.03;1.20;;;20.70;46.80;;;;;;5071552;28;20078;-52
2021/03/19 09:01:06;;;;;;;3.92;1.40;;;20.70;46.80;;;;;;5075930;28;20027;-53
2021/03/19 09:03:40;;;;;;;2.83;1.27;;;20.70;46.70;;;;;;5089912;28;20040;-50
2021/03/19 09:06:09;;;;;;;3.25;1.40;;;20.70;46.90;;;;;;5090770;28;20425;-52
2021/03/19 09:08:47;;;;;;;7.32;1.30;;;20.70;47.00;;;;;;5073776;28;20028;-54
2021/03/19 09:11:14;;;;;;;4.35;1.33;;;20.70;47.10;;;;;;5084672;28;20103;-49
2021/03/19 09:13:59;;;;;;;2.97;1.17;;;20.80;47.00;;;;;;5079089;28;20397;-51
2021/03/19 09:16:55;;;;;;;5.18;1.30;;;20.70;47.10;;;;;;5075653;28;20037;-51
2021/03/19 09:19:53;;;;;;;2.15;1.10;;;20.70;47.10;;;;;;5075717;28;20522;-48
2021/03/19 09:22:31;;;;;;;5.10;1.30;;;20.80;47.30;;;;;;5065676;28;20032;-47
2021/03/19 09:25:18;;;;;;;6.07;1.17;;;20.80;47.10;;;;;;5089696;28;20028;-50
2021/03/19 09:28:07;;;;;;;3.65;1.20;;;20.80;47.10;;;;;;5080049;28;20064;-50
2021/03/19 09:30:36;;;;;;;5.45;1.48;;;20.80;47.10;;;;;;5082471;28;20093;-49
2021/03/19 09:33:02;;;;;;;2.80;1.13;;;20.80;47.10;;;;;;5090176;28;20065;-51
2021/03/19 09:35:37;;;;;;;1.92;1.05;;;20.80;47.00;;;;;;5073208;28;20043;-47
2021/03/19 09:38:11;;;;;;;1.92;1.00;;;20.80;47.00;;;;;;5075005;28;20450;-48
2021/03/19 09:40:39;;;;;;;2.90;1.17;;;20.80;47.00;;;;;;5079396;28;20028;-55
2021/03/19 09:43:06;;;;;;;3.63;1.00;;;20.80;46.90;;;;;;5087947;28;20028;-48
2021/03/19 09:45:35;;;;;;;1.85;0.90;;;20.80;47.00;;;;;;5076047;28;20378;-51
2021/03/19 09:48:10;;;;;;;8.13;1.00;;;20.80;47.00;;;;;;5070375;28;20025;-52
2021/03/19 09:50:36;;;;;;;2.08;1.15;;;20.80;47.00;;;;;;5087828;28;20032;-52
2021/03/19 09:53:15;;;;;;;2.97;1.52;;;20.70;46.90;;;;;;5084236;28;20439;-52
2021/03/19 09:55:47;;;;;;;4.65;1.23;;;20.80;46.90;;;;;;5093378;28;20419;-50
2021/03/19 09:58:21;;;;;;;2.28;1.00;;;20.80;46.90;;;;;;5084396;28;20025;-50
2021/03/19 10:00:56;;;;;;;2.38;1.05;;;20.70;46.80;;;;;;5087892;28;20035;-50
2021/03/19 10:03:22;;;;;;;2.75;1.00;;;20.70;46.90;;;;;;5085606;28;20044;-49
2021/03/19 10:05:48;;;;;;;2.15;1.40;;;20.70;46.80;;;;;;5093056;28;20085;-51
2021/03/19 10:08:29;;;;;;;9.20;1.40;;;20.70;46.80;;;;;;5090765;28;20083;-52
2021/03/19 10:11:07;;;;;;;1.70;0.90;;;20.70;46.80;;;;;;5081268;28;20024;-49
2021/03/19 10:13:34;;;;;;;3.03;1.10;;;20.70;46.80;;;;;;5074937;28;20076;-52
2021/03/19 10:16:00;;;;;;;3.70;1.00;;;20.70;46.80;;;;;;5089367;28;20032;-48
2021/03/19 10:18:43;;;;;;;3.17;0.98;;;20.70;46.80;;;;;;5074279;28;20031;-48
2021/03/19 10:21:21;;;;;;;2.33;1.10;;;20.70;46.70;;;;;;5082963;28;20020;-48
2021/03/19 10:23:53;;;;;;;1.60;0.90;;;20.70;46.60;;;;;;5089956;28;20030;-47
2021/03/19 10:26:31;;;;;;;2.03;1.02;;;20.70;46.60;;;;;;5086257;28;20036;-48
2021/03/19 10:29:11;;;;;;;2.25;1.10;;;20.70;46.60;;;;;;5084946;28;20033;-45
2021/03/19 10:31:45;;;;;;;2.17;0.70;;;20.70;46.60;;;;;;5074003;28;20082;-55
2021/03/19 10:34:20;;;;;;;1.42;1.10;;;20.70;46.60;;;;;;5082359;28;20074;-50
2021/03/19 10:37:02;;;;;;;3.88;1.10;;;20.70;46.70;;;;;;5078120;28;20473;-52
2021/03/19 10:39:27;;;;;;;4.63;1.10;;;20.70;46.70;;;;;;5073887;28;20381;-51
2021/03/19 10:42:12;;;;;;;1.90;1.10;;;20.70;46.80;;;;;;5072882;28;20028;-51
2021/03/19 10:44:44;;;;;;;2.75;1.00;;;20.70;46.80;;;;;;5090098;28;20036;-55
2021/03/19 10:47:29;;;;;;;3.28;1.52;;;20.70;46.80;;;;;;5074878;28;20028;-47
2021/03/19 10:49:57;;;;;;;3.45;1.27;;;20.70;46.80;;;;;;5074975;28;20028;-50
2021/03/19 10:52:30;;;;;;;4.90;1.92;;;20.70;46.90;;;;;;5074639;28;20032;-54
2021/03/19 10:55:00;;;;;;;1.40;1.08;;;20.70;47.50;;;;;;5092123;28;20036;-51
2021/03/19 10:57:39;;;;;;;1.98;1.10;;;20.70;46.90;;;;;;5085188;28;20031;-49
2021/03/19 11:00:29;;;;;;;2.60;1.73;;;20.70;46.70;;;;;;5091650;28;20461;-52
2021/03/19 11:03:01;;;;;;;3.92;0.98;;;20.70;46.70;;;;;;5072442;28;20041;-49
2021/03/19 11:05:27;;;;;;;1.88;1.20;;;20.60;46.60;;;;;;5073719;28;20040;-51
2021/03/19 11:07:53;;;;;;;1.10;0.95;;;20.70;46.60;;;;;;5072550;28;20068;-50
2021/03/19 11:10:23;;;;;;;1.60;1.20;;;20.70;46.60;;;;;;5076572;28;20028;-52
2021/03/19 11:12:56;;;;;;;1.30;1.20;;;20.70;46.70;;;;;;5092510;28;20035;-50
2021/03/19 11:15:28;;;;;;;2.60;1.00;;;20.60;46.60;;;;;;5091820;28;20036;-52
2021/03/19 11:18:19;;;;;;;1.20;0.93;;;20.70;46.70;;;;;;5088726;28;20411;-50
2021/03/19 11:20:49;;;;;;;1.85;0.90;;;20.70;46.60;;;;;;5076686;28;20029;-53
2021/03/19 11:23:39;;;;;;;1.50;0.98;;;20.70;46.60;;;;;;5072878;28;20028;-51
2021/03/19 11:26:26;;;;;;;2.35;1.10;;;20.60;46.50;;;;;;5079552;28;20066;-50
2021/03/19 11:29:09;;;;;;;1.17;0.70;;;20.70;46.50;;;;;;5086216;28;20040;-49
2021/03/19 11:32:08;;;;;;;2.25;1.02;;;20.70;46.50;;;;;;5081225;28;20032;-49
2021/03/19 11:34:43;;;;;;;1.00;0.75;;;20.60;46.40;;;;;;5083496;28;20358;-45
2021/03/19 11:37:29;;;;;;;1.80;1.00;;;20.60;46.40;;;;;;5092468;28;20043;-48
2021/03/19 11:40:20;;;;;;;1.00;0.70;;;20.70;46.40;;;;;;5083268;28;20028;-49
2021/03/19 11:42:48;;;;;;;0.95;0.85;;;20.60;46.30;;;;;;5091076;28;20035;-51
2021/03/19 11:45:17;;;;;;;1.27;0.80;;;20.70;46.30;;;;;;5088953;28;20036;-50
2021/03/19 11:47:48;;;;;;;1.60;0.80;;;20.60;46.20;;;;;;5086839;28;20059;-48
2021/03/19 11:50:29;;;;;;;2.22;0.93;;;20.60;46.20;;;;;;5092468;28;20062;-51
2021/03/19 11:53:05;;;;;;;2.20;1.00;;;20.60;46.20;;;;;;5081636;28;20119;-52
2021/03/19 11:55:34;;;;;;;3.08;1.00;;;20.70;46.20;;;;;;5086145;28;20025;-53
2021/03/19 11:58:00;;;;;;;1.25;0.90;;;20.60;46.10;;;;;;5081372;28;20119;-52
2021/03/19 12:00:29;;;;;;;1.13;0.80;;;20.60;46.10;;;;;;5087647;28;20112;-49
2021/03/19 12:03:01;;;;;;;1.85;0.90;;;20.60;46.10;;;;;;5072867;28;20044;-49
2021/03/19 12:05:27;;;;;;;;;;;20.60;45.90;;;;;;5082121;28;20040;-49
2021/03/19 12:07:53;;;;;;;2.42;1.10;;;20.60;46.00;;;;;;5084857;28;19908;-51
2021/03/19 12:10:22;;;;;;;1.17;0.90;;;20.60;46.00;;;;;;5088880;28;20103;-49
2021/03/19 12:12:47;;;;;;;0.77;0.70;;;20.60;46.00;;;;;;5090783;28;20051;-51
2021/03/19 12:15:16;;;;;;;1.70;0.98;;;20.60;46.00;;;;;;5077185;28;20028;-53
2021/03/19 12:17:43;;;;;;;2.17;1.00;;;20.60;45.90;;;;;;5071149;28;20024;-54
2021/03/19 12:20:09;;;;;;;1.10;0.85;;;20.60;46.00;;;;;;5071875;28;20028;-51
2021/03/19 12:22:35;;;;;;;0.90;0.85;;;20.60;45.90;;;;;;5080456;28;20028;-50
2021/03/19 12:25:01;;;;;;;1.10;0.80;;;20.60;45.90;;;;;;5070719;28;20059;-50
2021/03/19 12:27:26;;;;;;;2.53;1.05;;;20.60;46.00;;;;;;5072782;28;20024;-56
2021/03/19 12:29:52;;;;;;;2.72;1.00;;;20.60;45.80;;;;;;5078291;28;20028;-57
2021/03/19 12:32:18;;;;;;;1.20;0.90;;;20.70;46.00;;;;;;5089933;28;20366;-58
2021/03/19 12:34:46;;;;;;;1.58;0.80;;;20.70;46.10;;;;;;5078560;28;20025;-53
2021/03/19 12:37:12;;;;;;;1.58;0.93;;;20.70;46.00;;;;;;5087694;28;20028;-52
2021/03/19 12:39:38;;;;;;;1.20;1.00;;;20.70;45.90;;;;;;5091235;28;20034;-59
2021/03/19 12:42:04;;;;;;;1.13;0.82;;;20.80;45.90;;;;;;5082169;28;20048;-54
2021/03/19 12:44:30;;;;;;;1.55;1.10;;;20.70;45.90;;;;;;5074642;28;20402;-59
2021/03/19 12:46:56;;;;;;;2.53;0.80;;;20.80;45.80;;;;;;5073693;28;20119;-56
2021/03/19 12:49:22;;;;;;;1.55;1.08;;;20.80;45.80;;;;;;5071795;28;20465;-54
2021/03/19 12:51:47;;;;;;;2.63;0.88;;;20.80;45.80;;;;;;5071305;28;20095;-56
2021/03/19 12:54:13;;;;;;;1.30;1.17;;;20.80;45.80;;;;;;5071481;28;20060;-60
2021/03/19 12:56:38;;;;;;;1.40;0.98;;;20.80;45.70;;;;;;5072328;28;20105;-58
2021/03/19 12:59:04;;;;;;;2.42;1.10;;;20.90;45.70;;;;;;5081023;28;20032;-52
2021/03/19 13:01:30;;;;;;;2.83;1.20;;;20.90;45.60;;;;;;5089383;28;20039;-53
2021/03/19 13:03:56;;;;;;;2.78;1.10;;;20.90;45.60;;;;;;5089718;28;20028;-51
2021/03/19 13:06:23;;;;;;;1.55;1.10;;;20.90;45.60;;;;;;5076921;28;20040;-56
2021/03/19 13:08:49;;;;;;;1.10;0.98;;;21.00;45.40;;;;;;5078486;28;20020;-54
2021/03/19 13:11:16;;;;;;;1.33;1.13;;;21.00;45.50;;;;;;5086871;28;20056;-57
2021/03/19 13:13:42;;;;;;;3.30;1.10;;;20.90;45.60;;;;;;5071124;28;20027;-55
2021/03/19 13:16:08;;;;;;;3.53;1.33;;;20.90;45.70;;;;;;5071223;28;20036;-59
2021/03/19 13:18:34;;;;;;;9.00;1.80;;;20.90;45.70;;;;;;5079199;28;20114;-58
2021/03/19 13:21:00;;;;;;;9.88;1.30;;;21.00;46.40;;;;;;5069334;28;20032;-53
2021/03/19 13:23:26;;;;;;;11.23;1.88;;;21.00;45.80;;;;;;5072182;28;20028;-56